Time;durP1;ratioP1;P1;durP2;ratioP2;P2;SDS_P1;SDS_P2;PMS_P1;PMS_P2;Temp;Humidity;BMP_temperature;BMP_pressure;BME280_temperature;BME280_humidity;BME280_pressure;Samples;Min_cycle;Max_cycle;Signal;HPM_P1;HPM_P2
2022/12/08 00:01:43;;;;;;;;;;;3.00;99.90;;;;;;6127076;23;19950;-76
2022/12/08 00:04:09;;;;;;;;;;;3.00;99.90;;;;;;6126603;23;20383;-76
2022/12/08 00:09:23;;;;;;;;;;;2.10;99.90;;;;;;6126955;23;19948;-75
2022/12/08 00:11:48;;;;;;;;;;;1.60;99.90;;;;;;6127034;23;19905;-76
2022/12/08 00:14:14;;;;;;;;;;;1.80;99.90;;;;;;6101129;23;19928;-75
2022/12/08 00:16:39;;;;;;;;;;;2.10;99.90;;;;;;6127432;23;20276;-76
2022/12/08 00:19:05;;;;;;;;;;;2.30;99.90;;;;;;6127019;23;19905;-76
2022/12/08 00:21:30;;;;;;;;;;;2.40;99.90;;;;;;6127029;23;19931;-76
2022/12/08 00:23:56;;;;;;;;;;;2.40;99.90;;;;;;6127080;23;19900;-75
2022/12/08 00:26:22;;;;;;;;;;;2.40;99.90;;;;;;6101030;23;19901;-76
2022/12/08 00:28:47;;;;;;;;;;;2.50;99.90;;;;;;6127430;23;19900;-76
2022/12/08 00:31:13;;;;;;;;;;;2.80;99.90;;;;;;6126793;23;19908;-76
2022/12/08 00:33:38;;;;;;;;;;;2.90;99.90;;;;;;6127112;23;19901;-76
2022/12/08 00:36:05;;;;;;;;;;;2.80;99.90;;;;;;6126834;23;19905;-75
2022/12/08 00:38:31;;;;;;;;;;;2.80;99.90;;;;;;6127402;23;19952;-76
2022/12/08 00:40:56;;;;;;;;;;;2.50;99.90;;;;;;6126853;23;19901;-76
2022/12/08 00:43:22;;;;;;;;;;;2.30;99.90;;;;;;6127202;23;19901;-76
2022/12/08 00:45:47;;;;;;;;;;;2.60;99.90;;;;;;6101015;23;19900;-75
2022/12/08 00:48:13;;;;;;;;;;;2.70;99.90;;;;;;6102377;23;19901;-75
2022/12/08 00:50:39;;;;;;;;;;;2.80;99.90;;;;;;6129124;23;19995;-77
2022/12/08 00:53:04;;;;;;;;;;;2.50;99.90;;;;;;6128839;23;19912;-76
2022/12/08 00:55:30;;;;;;;;;;;2.20;99.90;;;;;;6128990;23;19908;-75
2022/12/08 00:57:55;;;;;;;;;;;2.10;99.90;;;;;;6102772;23;20235;-76
2022/12/08 01:00:21;;;;;;;;;;;2.40;99.90;;;;;;6129154;23;19901;-76
2022/12/08 01:02:47;;;;;;;;;;;2.60;99.90;;;;;;6126967;23;19923;-76
2022/12/08 01:05:12;;;;;;;;;;;2.80;99.90;;;;;;6128771;23;20221;-76
2022/12/08 01:07:38;;;;;;;;;;;2.70;99.90;;;;;;6129030;23;20328;-75
2022/12/08 01:10:04;;;;;;;;;;;2.80;99.90;;;;;;6128682;23;19901;-75
2022/12/08 01:12:29;;;;;;;;;;;3.00;99.90;;;;;;6128547;23;20313;-76
2022/12/08 01:14:55;;;;;;;;;;;3.10;99.90;;;;;;6128700;23;19905;-76
2022/12/08 01:17:21;;;;;;;;;;;3.20;99.90;;;;;;6128152;23;19901;-76
2022/12/08 01:19:46;;;;;;;;;;;3.30;99.90;;;;;;6128703;23;19911;-75
2022/12/08 01:22:12;;;;;;;;;;;3.30;99.90;;;;;;6128664;23;19904;-76
2022/12/08 01:24:37;;;;;;;;;;;2.70;99.90;;;;;;6129136;23;20292;-76
2022/12/08 01:27:03;;;;;;;;;;;2.50;99.90;;;;;;6128921;23;19901;-77
2022/12/08 01:29:28;;;;;;;;;;;2.50;99.90;;;;;;6128551;23;19901;-75
2022/12/08 01:31:54;;;;;;;;;;;2.50;1.00;;;;;;6128527;23;20324;-75
2022/12/08 01:34:20;;;;;;;;;;;2.70;1.00;;;;;;6102623;23;19901;-77
2022/12/08 01:36:46;;;;;;;;;;;2.80;99.90;;;;;;6128934;23;19979;-75
2022/12/08 01:39:16;;;;;;;;;;;2.90;99.90;;;;;;6128521;23;19904;-76
2022/12/08 01:41:42;;;;;;;;;;;2.80;99.90;;;;;;6128458;23;19901;-75
2022/12/08 01:44:09;;;;;;;;;;;2.80;99.90;;;;;;6128384;23;19901;-76
2022/12/08 01:46:36;;;;;;;;;;;2.80;99.90;;;;;;6102365;23;20347;-75
2022/12/08 01:49:04;;;;;;;;;;;2.90;99.90;;;;;;6128347;23;19917;-77
2022/12/08 01:51:31;;;;;;;;;;;3.00;99.90;;;;;;6128375;23;19991;-76
2022/12/08 01:53:56;;;;;;;;;;;3.00;99.90;;;;;;6128486;23;20363;-76
2022/12/08 01:56:29;;;;;;;;;;;3.00;99.90;;;;;;6128362;23;19952;-75
2022/12/08 01:58:55;;;;;;;;;;;2.80;99.90;;;;;;6127609;23;19901;-76
2022/12/08 02:01:20;;;;;;;;;;;2.80;99.90;;;;;;6102381;23;19939;-75
2022/12/08 02:03:48;;;;;;;;;;;2.70;99.90;;;;;;6128094;23;19923;-76
2022/12/08 02:06:15;;;;;;;;;;;2.60;99.90;;;;;;6128280;23;19901;-76
2022/12/08 02:08:41;;;;;;;;;;;2.40;99.90;;;;;;6128475;23;19901;-76
2022/12/08 02:11:10;;;;;;;;;;;2.30;99.90;;;;;;6128272;23;19907;-76
2022/12/08 02:13:36;;;;;;;;;;;2.30;1.00;;;;;;6128219;23;19979;-74
2022/12/08 02:16:14;;;;;;;;;;;2.30;1.00;;;;;;6128086;23;20303;-76
2022/12/08 02:19:01;;;;;;;;;;;2.30;1.00;;;;;;6102059;23;19908;-76
2022/12/08 02:21:32;;;;;;;;;;;2.50;1.00;;;;;;6128284;23;19907;-76
2022/12/08 02:24:09;;;;;;;;;;;2.50;1.00;;;;;;6128094;23;19908;-77
2022/12/08 02:26:56;;;;;;;;;;;2.30;99.90;;;;;;6128063;23;20371;-76
2022/12/08 02:29:42;;;;;;;;;;;2.30;99.90;;;;;;6128162;23;20316;-76
2022/12/08 02:32:21;;;;;;;;;;;2.30;99.90;;;;;;6127817;23;20212;-76
2022/12/08 02:34:56;;;;;;;;;;;2.30;99.90;;;;;;6128245;23;19905;-77
2022/12/08 02:37:28;;;;;;;;;;;1.60;99.90;;;;;;6128128;23;19901;-75
2022/12/08 02:40:12;;;;;;;;;;;1.20;1.00;;;;;;6128472;23;19975;-75
2022/12/08 02:42:46;;;;;;;;;;;1.20;99.90;;;;;;6128237;23;20312;-76
2022/12/08 02:45:22;;;;;;;;;;;1.50;99.90;;;;;;6127871;23;19907;-76
2022/12/08 02:47:48;;;;;;;;;;;1.80;99.90;;;;;;6127774;23;19928;-75
2022/12/08 02:50:14;;;;;;;;;;;1.80;99.90;;;;;;6127770;23;19901;-75
2022/12/08 02:52:41;;;;;;;;;;;1.30;99.90;;;;;;6127874;23;19904;-76
2022/12/08 02:55:13;;;;;;;;;;;1.40;1.00;;;;;;6127785;23;19901;-76
2022/12/08 02:57:57;;;;;;;;;;;1.50;1.00;;;;;;6101660;23;19901;-76
2022/12/08 03:00:24;;;;;;;;;;;1.40;1.00;;;;;;6127692;23;20316;-76
2022/12/08 03:02:49;;;;;;;;;;;1.40;99.90;;;;;;6127456;23;19913;-75
2022/12/08 03:05:21;;;;;;;;;;;1.40;99.90;;;;;;6127763;23;19905;-76
2022/12/08 03:07:52;;;;;;;;;;;1.30;99.90;;;;;;6127817;23;20243;-76
2022/12/08 03:10:26;;;;;;;;;;;1.30;99.90;;;;;;6127772;23;19959;-75
2022/12/08 03:13:12;;;;;;;;;;;1.40;99.90;;;;;;6127484;23;19987;-76
2022/12/08 03:15:38;;;;;;;;;;;1.40;83.40;;;;;;6127715;23;19928;-75
2022/12/08 03:18:05;;;;;;;;;;;1.40;46.90;;;;;;6127682;23;19942;-76
2022/12/08 03:20:32;;;;;;;;;;;1.30;99.90;;;;;;6127549;23;19976;-76
2022/12/08 03:22:58;;;;;;;;;;;1.30;47.70;;;;;;6127654;23;20265;-76
2022/12/08 03:25:25;;;;;;;;;;;1.30;24.20;;;;;;6127414;23;19901;-75
2022/12/08 03:27:51;;;;;;;;;;;1.40;76.70;;;;;;6127635;23;19930;-75
2022/12/08 03:30:17;;;;;;;;;;;1.60;99.90;;;;;;6127571;23;19907;-75
2022/12/08 03:32:59;;;;;;;;;;;1.60;99.90;;;;;;6101299;23;19983;-76
2022/12/08 03:35:26;;;;;;;;;;;1.90;99.90;;;;;;6127673;23;19924;-75
2022/12/08 03:38:00;;;;;;;;;;;2.20;99.90;;;;;;6127448;23;19900;-76
2022/12/08 03:40:26;;;;;;;;;;;2.50;99.90;;;;;;6127512;23;19951;-77
2022/12/08 03:42:51;;;;;;;;;;;2.60;26.50;;;;;;6127386;23;20268;-76
2022/12/08 03:45:17;;;;;;;;;;;2.50;1.00;;;;;;6127844;23;19901;-75
2022/12/08 03:47:42;;;;;;;;;;;2.50;1.00;;;;;;6127273;23;19908;-76
2022/12/08 03:50:08;;;;;;;;;;;2.50;1.00;;;;;;6127325;23;20221;-76
2022/12/08 03:52:34;;;;;;;;;;;2.50;1.00;;;;;;6127286;23;20213;-76
2022/12/08 03:54:59;;;;;;;;;;;2.50;1.00;;;;;;6127315;23;19907;-76
2022/12/08 03:57:25;;;;;;;;;;;2.40;1.00;;;;;;6126947;23;19901;-76
2022/12/08 03:59:50;;;;;;;;;;;2.60;1.00;;;;;;6127513;23;20225;-75
2022/12/08 04:02:16;;;;;;;;;;;2.60;1.00;;;;;;6126964;23;19911;-76
2022/12/08 04:04:42;;;;;;;;;;;2.60;1.00;;;;;;6127118;23;19924;-76
2022/12/08 04:07:07;;;;;;;;;;;2.50;1.00;;;;;;6127117;23;19901;-76
2022/12/08 04:09:33;;;;;;;;;;;2.30;99.90;;;;;;6127071;23;19947;-76
2022/12/08 04:11:58;;;;;;;;;;;2.00;1.00;;;;;;6127486;23;20320;-77
2022/12/08 04:14:24;;;;;;;;;;;2.00;1.00;;;;;;6127107;23;19936;-77
2022/12/08 04:16:49;;;;;;;;;;;2.10;1.00;;;;;;6127144;23;19901;-76
2022/12/08 04:19:15;;;;;;;;;;;2.20;1.00;;;;;;6125605;23;19962;-75
2022/12/08 04:21:40;;;;;;;;;;;2.20;1.00;;;;;;6126589;23;19983;-76
2022/12/08 04:24:06;;;;;;;;;;;2.40;1.00;;;;;;6100910;23;20386;-75
2022/12/08 04:26:32;;;;;;;;;;;2.10;20.20;;;;;;6127390;23;19901;-77
2022/12/08 04:28:57;;;;;;;;;;;1.80;99.90;;;;;;6127176;23;19948;-76
2022/12/08 04:31:23;;;;;;;;;;;1.70;1.00;;;;;;6126929;23;19900;-75
2022/12/08 04:33:48;;;;;;;;;;;1.80;1.00;;;;;;6126924;23;20260;-75
2022/12/08 04:36:14;;;;;;;;;;;2.10;1.00;;;;;;6126915;23;19979;-76
2022/12/08 04:38:40;;;;;;;;;;;2.20;1.00;;;;;;6126956;23;20236;-75
2022/12/08 04:41:05;;;;;;;;;;;2.00;99.90;;;;;;6127610;23;19911;-76
2022/12/08 04:43:31;;;;;;;;;;;1.60;99.90;;;;;;6126897;23;19904;-76
2022/12/08 04:45:56;;;;;;;;;;;1.40;99.90;;;;;;6126928;23;20316;-76
2022/12/08 04:48:22;;;;;;;;;;;1.60;1.00;;;;;;6127096;23;19948;-77
2022/12/08 04:50:47;;;;;;;;;;;1.70;1.00;;;;;;6126910;23;20273;-75
2022/12/08 04:53:13;;;;;;;;;;;1.50;1.00;;;;;;6127157;23;20221;-75
2022/12/08 04:55:40;;;;;;;;;;;1.30;1.00;;;;;;6126758;23;20224;-76
2022/12/08 04:58:06;;;;;;;;;;;1.40;46.20;;;;;;6126651;23;20229;-75
2022/12/08 05:00:32;;;;;;;;;;;1.70;99.90;;;;;;6127170;23;19937;-76
2022/12/08 05:02:58;;;;;;;;;;;1.80;63.40;;;;;;6126566;23;19913;-76
2022/12/08 05:05:23;;;;;;;;;;;1.90;57.60;;;;;;6127223;23;19901;-75
2022/12/08 05:07:49;;;;;;;;;;;1.90;15.00;;;;;;6125378;23;19901;-76
2022/12/08 05:10:15;;;;;;;;;;;2.00;1.00;;;;;;6126747;23;19901;-77
2022/12/08 05:12:40;;;;;;;;;;;1.90;1.00;;;;;;6100718;23;20347;-76
2022/12/08 05:15:06;;;;;;;;;;;2.00;1.00;;;;;;6127185;23;19956;-76
2022/12/08 05:17:32;;;;;;;;;;;2.00;99.90;;;;;;6126996;23;19933;-75
2022/12/08 05:19:57;;;;;;;;;;;2.00;99.90;;;;;;6127060;23;20328;-76
2022/12/08 05:22:23;;;;;;;;;;;2.10;99.90;;;;;;6126774;23;19901;-75
2022/12/08 05:24:48;;;;;;;;;;;2.20;99.90;;;;;;6126843;23;19908;-75
2022/12/08 05:27:14;;;;;;;;;;;2.30;44.00;;;;;;6127038;23;20280;-76
2022/12/08 05:29:39;;;;;;;;;;;2.20;1.00;;;;;;6100890;23;19908;-75
2022/12/08 05:32:05;;;;;;;;;;;2.00;1.00;;;;;;6126995;23;19936;-76
2022/12/08 05:34:31;;;;;;;;;;;2.00;1.00;;;;;;6128349;23;19936;-76
2022/12/08 05:36:56;;;;;;;;;;;2.10;1.00;;;;;;6128792;23;20279;-76
2022/12/08 05:39:22;;;;;;;;;;;1.90;1.00;;;;;;6128766;23;19948;-76
2022/12/08 05:41:47;;;;;;;;;;;1.90;1.00;;;;;;6128611;23;19908;-76
2022/12/08 05:44:13;;;;;;;;;;;1.90;1.00;;;;;;6128434;23;19901;-77
2022/12/08 05:46:38;;;;;;;;;;;1.70;1.00;;;;;;6128657;23;20276;-76
2022/12/08 05:49:04;;;;;;;;;;;1.80;1.00;;;;;;6128685;23;20383;-76
2022/12/08 05:51:30;;;;;;;;;;;1.90;1.00;;;;;;6128399;23;19908;-75
2022/12/08 05:53:55;;;;;;;;;;;1.80;1.00;;;;;;6128372;23;19992;-76
2022/12/08 05:56:22;;;;;;;;;;;1.90;1.00;;;;;;6128379;23;19928;-76
2022/12/08 05:58:47;;;;;;;;;;;2.00;1.00;;;;;;6128315;23;19948;-75
2022/12/08 06:01:22;;;;;;;;;;;2.00;1.00;;;;;;6128842;23;19904;-76
2022/12/08 06:03:48;;;;;;;;;;;2.00;1.00;;;;;;6128393;23;19940;-75
2022/12/08 06:06:14;;;;;;;;;;;2.10;1.00;;;;;;6128257;23;19924;-75
2022/12/08 06:08:39;;;;;;;;;;;1.80;99.90;;;;;;6128264;23;19901;-76
2022/12/08 06:11:05;;;;;;;;;;;1.50;99.90;;;;;;6128162;23;19947;-76
2022/12/08 06:13:30;;;;;;;;;;;1.40;1.00;;;;;;6128183;23;19911;-76
2022/12/08 06:16:01;;;;;;;;;;;1.30;1.00;;;;;;6128148;23;19900;-75
2022/12/08 06:18:27;;;;;;;;;;;1.20;1.00;;;;;;6128231;23;19980;-77
2022/12/08 06:21:00;;;;;;;;;;;1.00;1.00;;;;;;6128057;23;20387;-76
2022/12/08 06:23:26;;;;;;;;;;;1.00;1.00;;;;;;6128369;23;20354;-76
2022/12/08 06:25:51;;;;;;;;;;;1.00;1.00;;;;;;6128084;23;19979;-76
2022/12/08 06:28:17;;;;;;;;;;;0.90;1.00;;;;;;6102059;23;20217;-75
2022/12/08 06:30:43;;;;;;;;;;;0.80;1.00;;;;;;6127920;23;19975;-75
2022/12/08 06:33:08;;;;;;;;;;;0.80;1.00;;;;;;6128234;23;20256;-75
2022/12/08 06:35:34;;;;;;;;;;;0.70;1.00;;;;;;6128042;23;19908;-76
2022/12/08 06:37:59;;;;;;;;;;;0.80;1.00;;;;;;6127962;23;19901;-77
2022/12/08 06:40:25;;;;;;;;;;;0.70;18.90;;;;;;6127913;23;19987;-75
2022/12/08 06:42:51;;;;;;;;;;;0.90;93.00;;;;;;6128152;23;19953;-75
2022/12/08 06:45:17;;;;;;;;;;;1.10;46.50;;;;;;6127847;23;19900;-75
2022/12/08 06:47:42;;;;;;;;;;;1.10;1.00;;;;;;6101865;23;19901;-76
2022/12/08 06:50:08;;;;;;;;;;;1.00;1.00;;;;;;6127692;23;19901;-75
2022/12/08 06:52:34;;;;;;;;;;;0.90;1.00;;;;;;6127642;23;19911;-75
2022/12/08 06:55:00;;;;;;;;;;;0.80;1.00;;;;;;6101717;23;19936;-76
2022/12/08 06:57:25;;;;;;;;;;;0.70;1.00;;;;;;6127848;23;19959;-76
2022/12/08 06:59:51;;;;;;;;;;;0.60;1.00;;;;;;6127861;23;19901;-75
2022/12/08 07:02:16;;;;;;;;;;;0.50;1.00;;;;;;6127348;23;19901;-76
2022/12/08 07:04:42;;;;;;;;;;;0.50;1.00;;;;;;6128030;23;20285;-75
2022/12/08 07:07:08;;;;;;;;;;;0.50;1.00;;;;;;6127739;23;19901;-76
2022/12/08 07:09:33;;;;;;;;;;;0.50;1.00;;;;;;6127771;23;19901;-75
2022/12/08 07:11:59;;;;;;;;;;;0.40;1.00;;;;;;6127586;23;20239;-75
2022/12/08 07:14:24;;;;;;;;;;;0.40;1.00;;;;;;6101706;23;19901;-76
2022/12/08 07:16:51;;;;;;;;;;;0.70;19.40;;;;;;6127538;23;19905;-75
2022/12/08 07:19:16;;;;;;;;;;;0.80;99.90;;;;;;6127534;23;20336;-75
2022/12/08 07:21:42;;;;;;;;;;;0.90;92.50;;;;;;6127490;23;19901;-76
2022/12/08 07:24:07;;;;;;;;;;;0.90;68.90;;;;;;6127623;23;19976;-76
2022/12/08 07:26:33;;;;;;;;;;;0.80;99.90;;;;;;6127559;23;19928;-75
2022/12/08 07:28:59;;;;;;;;;;;0.70;99.90;;;;;;6127461;23;19952;-75
2022/12/08 07:31:25;;;;;;;;;;;0.80;99.90;;;;;;6127472;23;19905;-76
2022/12/08 07:33:51;;;;;;;;;;;1.10;99.90;;;;;;6127843;23;20020;-76
2022/12/08 07:36:17;;;;;;;;;;;1.30;99.90;;;;;;6101289;23;20432;-75
2022/12/08 07:38:43;;;;;;;;;;;1.30;99.90;;;;;;6127447;23;19936;-75
2022/12/08 07:41:15;;;;;;;;;;;1.40;99.90;;;;;;6127405;23;19956;-75
2022/12/08 07:43:41;;;;;;;;;;;1.20;99.90;;;;;;6127292;23;19925;-75
2022/12/08 07:46:10;;;;;;;;;;;1.00;99.90;;;;;;6127436;23;19952;-75
2022/12/08 07:48:35;;;;;;;;;;;1.10;1.00;;;;;;6127367;23;20221;-75
2022/12/08 07:51:02;;;;;;;;;;;1.10;1.00;;;;;;6127417;23;19952;-74
2022/12/08 07:53:27;;;;;;;;;;;1.10;1.00;;;;;;6127335;23;20324;-74
2022/12/08 07:55:53;;;;;;;;;;;1.10;1.00;;;;;;6127469;23;19907;-75
2022/12/08 07:58:18;;;;;;;;;;;1.00;99.90;;;;;;6126917;23;20228;-74
2022/12/08 08:00:44;;;;;;;;;;;0.80;99.90;;;;;;6127242;23;19939;-75
2022/12/08 08:03:10;;;;;;;;;;;1.10;1.00;;;;;;6127408;23;20319;-75
2022/12/08 08:05:36;;;;;;;;;;;1.10;1.00;;;;;;6127226;23;20276;-75
2022/12/08 08:08:02;;;;;;;;;;;1.10;99.90;;;;;;6127159;23;19900;-77
2022/12/08 08:10:27;;;;;;;;;;;0.80;99.90;;;;;;6101193;23;19901;-74
2022/12/08 08:12:53;;;;;;;;;;;0.90;1.00;;;;;;6127037;23;19905;-75
2022/12/08 08:15:20;;;;;;;;;;;1.00;1.00;;;;;;6101206;23;19901;-77
2022/12/08 08:17:47;;;;;;;;;;;1.00;99.90;;;;;;6127139;23;19973;-77
2022/12/08 08:20:13;;;;;;;;;;;1.00;99.90;;;;;;6127116;23;20218;-79
2022/12/08 08:22:39;;;;;;;;;;;0.90;99.90;;;;;;6127091;23;19996;-74
2022/12/08 08:25:05;;;;;;;;;;;1.00;99.90;;;;;;6127435;23;19988;-75
2022/12/08 08:27:30;;;;;;;;;;;1.00;99.90;;;;;;6126657;23;19908;-76
2022/12/08 08:29:56;;;;;;;;;;;1.30;99.90;;;;;;6127173;23;19905;-77
2022/12/08 08:32:21;;;;;;;;;;;1.40;99.90;;;;;;6127030;23;19983;-76
2022/12/08 08:34:47;;;;;;;;;;;1.40;99.90;;;;;;6127569;23;19905;-76
2022/12/08 08:37:12;;;;;;;;;;;1.50;99.90;;;;;;6127230;23;20320;-77
2022/12/08 08:39:38;;;;;;;;;;;1.50;99.90;;;;;;6127014;23;19901;-77
2022/12/08 08:42:03;;;;;;;;;;;1.60;99.90;;;;;;6127127;23;19932;-76
2022/12/08 08:44:29;;;;;;;;;;;1.70;99.90;;;;;;6127049;23;19901;-77
2022/12/08 08:46:55;;;;;;;;;;;1.60;99.90;;;;;;6126837;23;19901;-77
2022/12/08 08:49:20;;;;;;;;;;;1.50;99.90;;;;;;6127370;23;20316;-76
2022/12/08 08:51:50;;;;;;;;;;;1.50;99.90;;;;;;6125333;23;19908;-76
2022/12/08 08:54:15;;;;;;;;;;;1.60;99.90;;;;;;6125864;23;19956;-77
2022/12/08 08:56:41;;;;;;;;;;;1.70;99.90;;;;;;6126989;23;19904;-77
2022/12/08 08:59:08;;;;;;;;;;;1.80;99.90;;;;;;6126792;23;19901;-76
2022/12/08 09:01:33;;;;;;;;;;;1.90;99.90;;;;;;6126930;23;19901;-77
2022/12/08 09:04:00;;;;;;;;;;;1.90;99.90;;;;;;6126145;23;19913;-76
2022/12/08 09:06:26;;;;;;;;;;;2.20;99.90;;;;;;6100916;23;19907;-76
2022/12/08 09:08:52;;;;;;;;;;;2.10;99.90;;;;;;6127981;23;19901;-76
2022/12/08 09:11:19;;;;;;;;;;;2.20;99.90;;;;;;6128632;23;19980;-76
2022/12/08 09:13:48;;;;;;;;;;;2.50;99.90;;;;;;6102730;23;19905;-76
2022/12/08 09:16:13;;;;;;;;;;;2.50;1.00;;;;;;6128741;23;19951;-76
2022/12/08 09:18:39;;;;;;;;;;;2.30;1.00;;;;;;6128698;23;20267;-78
2022/12/08 09:21:07;;;;;;;;;;;2.40;43.90;;;;;;6128921;23;19908;-77
2022/12/08 09:23:32;;;;;;;;;;;2.30;1.00;;;;;;6128835;23;19932;-76
2022/12/08 09:25:58;;;;;;;;;;;2.50;1.00;;;;;;6129106;23;19908;-77
2022/12/08 09:28:23;;;;;;;;;;;2.20;1.00;;;;;;6128932;23;19900;-76
2022/12/08 09:30:50;;;;;;;;;;;2.00;1.00;;;;;;6128756;23;19980;-73
2022/12/08 09:33:15;;;;;;;;;;;2.00;1.00;;;;;;6128530;23;19905;-76
2022/12/08 09:35:41;;;;;;;;;;;2.00;1.00;;;;;;6128969;23;19901;-77
2022/12/08 09:38:06;;;;;;;;;;;2.10;1.00;;;;;;6128509;23;20239;-77
2022/12/08 09:40:35;;;;;;;;;;;2.10;1.00;;;;;;6128626;23;19908;-77
2022/12/08 09:43:01;;;;;;;;;;;1.90;1.00;;;;;;6128397;23;19901;-77
2022/12/08 09:45:28;;;;;;;;;;;1.90;1.00;;;;;;6128791;23;19901;-79
2022/12/08 09:48:13;;;;;;;;;;;2.30;15.30;;;;;;6128442;23;19916;-76
2022/12/08 09:50:44;;;;;;;;;;;2.70;1.00;;;;;;6128400;23;19901;-77
2022/12/08 09:53:15;;;;;;;;;;;2.60;1.00;;;;;;6128452;23;19912;-76
2022/12/08 09:56:01;;;;;;;;;;;2.40;1.00;;;;;;6128560;23;20235;-76
2022/12/08 09:58:30;;;;;;;;;;;2.60;1.00;;;;;;6128521;23;19952;-77
2022/12/08 10:00:56;;;;;;;;;;;3.00;1.00;;;;;;6128400;23;19901;-76
2022/12/08 10:03:23;;;;;;;;;;;3.20;1.00;;;;;;6128113;23;19919;-76
2022/12/08 10:05:53;;;;;;;;;;;3.10;99.90;;;;;;6102409;23;19983;-77
2022/12/08 10:08:23;;;;;;;;;;;2.80;99.90;;;;;;6128540;23;19904;-76
2022/12/08 10:10:56;;;;;;;;;;;2.70;99.90;;;;;;6128401;23;19928;-77
2022/12/08 10:13:39;;;;;;;;;;;2.90;1.00;;;;;;6128160;23;19988;-74
2022/12/08 10:16:08;;;;;;;;;;;3.30;99.90;;;;;;6128540;23;19939;-77
2022/12/08 10:18:33;;;;;;;;;;;3.30;99.90;;;;;;6128302;23;20346;-74
2022/12/08 10:21:10;;;;;;;;;;;3.60;99.90;;;;;;6127672;23;19932;-76
2022/12/08 10:23:39;;;;;;;;;;;3.60;99.90;;;;;;6101790;23;19901;-77
2022/12/08 10:26:12;;;;;;;;;;;3.30;99.90;;;;;;6128389;23;19905;-76
2022/12/08 10:28:37;;;;;;;;;;;3.00;99.90;;;;;;6127991;23;19964;-76
2022/12/08 10:31:03;;;;;;;;;;;2.90;99.90;;;;;;6128045;23;20319;-77
2022/12/08 10:33:30;;;;;;;;;;;2.80;99.90;;;;;;6127949;23;19987;-76
2022/12/08 10:35:58;;;;;;;;;;;2.80;99.90;;;;;;6127978;23;19932;-76
2022/12/08 10:38:36;;;;;;;;;;;2.70;99.90;;;;;;6127974;23;19901;-76
2022/12/08 10:41:05;;;;;;;;;;;3.10;1.00;;;;;;6128077;23;19908;-77
2022/12/08 10:43:31;;;;;;;;;;;3.00;99.90;;;;;;6128619;23;19951;-76
2022/12/08 10:46:26;;;;;;;;;;;3.00;99.90;;;;;;6127998;23;19948;-77
2022/12/08 10:48:53;;;;;;;;;;;3.10;99.90;;;;;;6108724;23;19932;-76
2022/12/08 10:51:36;;;;;;;;;;;3.50;99.90;;;;;;6127858;23;19936;-73
2022/12/08 10:54:04;;;;;;;;;;;3.50;99.90;;;;;;6128338;23;19927;-74
2022/12/08 10:56:30;;;;;;;;;;;3.30;99.90;;;;;;6127778;23;19901;-77
2022/12/08 10:59:12;;;;;;;;;;;3.50;99.90;;;;;;6127853;23;20394;-77
2022/12/08 11:01:38;;;;;;;;;;;3.50;99.90;;;;;;6128393;23;19901;-76
2022/12/08 11:04:20;;;;;;;;;;;3.80;99.90;;;;;;6127493;23;19913;-76
2022/12/08 11:06:46;;;;;;;;;;;3.60;99.90;;;;;;6127967;23;19908;-76
2022/12/08 11:09:15;;;;;;;;;;;3.70;99.90;;;;;;6127723;23;19901;-76
2022/12/08 11:11:49;;;;;;;;;;;3.70;99.90;;;;;;6127600;23;19928;-77
2022/12/08 11:14:22;;;;;;;;;;;4.10;99.90;;;;;;6127712;23;19908;-77
2022/12/08 11:16:49;;;;;;;;;;;3.90;99.90;;;;;;6127657;23;19901;-77
2022/12/08 11:19:16;;;;;;;;;;;4.00;99.90;;;;;;6127621;23;19900;-77
2022/12/08 11:21:42;;;;;;;;;;;4.00;99.90;;;;;;6127585;23;20239;-77
2022/12/08 11:24:14;;;;;;;;;;;4.20;99.90;;;;;;6127657;23;19964;-75
2022/12/08 11:26:44;;;;;;;;;;;4.50;99.90;;;;;;6127769;23;19932;-77
2022/12/08 11:29:11;;;;;;;;;;;4.50;99.90;;;;;;6127652;23;19908;-76
2022/12/08 11:32:00;;;;;;;;;;;4.70;99.90;;;;;;6127551;23;19909;-76
2022/12/08 11:34:38;;;;;;;;;;;4.90;99.90;;;;;;6090251;23;19900;-76
2022/12/08 11:37:05;;;;;;;;;;;4.80;99.90;;;;;;6101204;23;19905;-76
2022/12/08 11:39:33;;;;;;;;;;;4.70;99.90;;;;;;6127824;23;19908;-76
2022/12/08 11:42:00;;;;;;;;;;;4.30;99.90;;;;;;6127556;23;19901;-78
2022/12/08 11:44:38;;;;;;;;;;;4.20;99.90;;;;;;6127523;23;19901;-76
2022/12/08 11:47:07;;;;;;;;;;;4.80;99.90;;;;;;6127630;23;19901;-77
2022/12/08 11:49:37;;;;;;;;;;;5.00;99.90;;;;;;6127356;23;19924;-76
2022/12/08 11:52:16;;;;;;;;;;;4.90;99.90;;;;;;6127248;23;19940;-76
2022/12/08 11:54:44;;;;;;;;;;;4.70;99.90;;;;;;6127503;23;20312;-76
2022/12/08 11:57:19;;;;;;;;;;;4.40;99.90;;;;;;6127534;23;20359;-77
2022/12/08 11:59:49;;;;;;;;;;;4.40;99.90;;;;;;6127326;23;19923;-76
2022/12/08 12:02:18;;;;;;;;;;;4.10;99.90;;;;;;6127221;23;19932;-77
2022/12/08 12:04:44;;;;;;;;;;;4.10;1.00;;;;;;6097996;23;19921;-76
2022/12/08 12:07:16;;;;;;;;;;;4.10;1.00;;;;;;6097901;23;19901;-78
2022/12/08 12:09:47;;;;;;;;;;;4.20;1.00;;;;;;6097948;23;20327;-76
2022/12/08 12:12:31;;;;;;;;;;;4.30;1.00;;;;;;6072176;23;19905;-77
2022/12/08 12:15:00;;;;;;;;;;;4.10;1.00;;;;;;6072248;23;20221;-77
2022/12/08 12:17:35;;;;;;;;;;;4.00;1.00;;;;;;6097972;23;19907;-77
2022/12/08 12:20:10;;;;;;;;;;;4.20;1.00;;;;;;6098097;23;19901;-77
2022/12/08 12:22:36;;;;;;;;;;;4.20;1.00;;;;;;6072093;23;19912;-76
2022/12/08 12:25:02;;;;;;;;;;;4.20;1.00;;;;;;6098393;23;19901;-76
2022/12/08 12:27:36;;;;;;;;;;;4.10;1.00;;;;;;6097956;23;19909;-76
2022/12/08 12:30:05;;;;;;;;;;;4.00;1.00;;;;;;6072024;23;20347;-77
2022/12/08 12:32:50;;;;;;;;;;;4.20;1.00;;;;;;6072261;23;19909;-76
2022/12/08 12:35:22;;;;;;;;;;;4.20;1.00;;;;;;6097788;23;19976;-77
2022/12/08 12:37:48;;;;;;;;;;;4.10;1.00;;;;;;6098173;23;19901;-79
2022/12/08 12:40:19;;;;;;;;;;;4.10;1.00;;;;;;6097716;23;19935;-76
2022/12/08 12:42:44;;;;;;;;;;;4.30;1.00;;;;;;6098874;23;19948;-76
2022/12/08 12:45:15;;;;;;;;;;;4.30;99.90;;;;;;6101050;23;20321;-76
2022/12/08 12:47:46;;;;;;;;;;;4.30;1.00;;;;;;6101260;23;19979;-77
2022/12/08 12:50:12;;;;;;;;;;;4.40;1.00;;;;;;6101036;23;19968;-76
2022/12/08 12:52:38;;;;;;;;;;;4.30;99.90;;;;;;6100850;23;19927;-78
2022/12/08 12:55:10;;;;;;;;;;;4.40;99.90;;;;;;6100958;23;20321;-76
2022/12/08 12:57:37;;;;;;;;;;;4.40;1.00;;;;;;6101245;23;19909;-77
2022/12/08 13:00:02;;;;;;;;;;;4.20;1.00;;;;;;6100989;23;19901;-77
2022/12/08 13:02:32;;;;;;;;;;;4.30;1.00;;;;;;6102605;23;19961;-76
2022/12/08 13:05:16;;;;;;;;;;;4.40;1.00;;;;;;6130304;23;20016;-77
2022/12/08 13:07:45;;;;;;;;;;;4.50;1.00;;;;;;6130200;23;20245;-76
2022/12/08 13:10:18;;;;;;;;;;;4.60;99.90;;;;;;6130445;23;19901;-76
2022/12/08 13:12:45;;;;;;;;;;;4.60;99.90;;;;;;6129738;23;19916;-76
2022/12/08 13:15:18;;;;;;;;;;;4.50;99.90;;;;;;6130111;23;19901;-77
2022/12/08 13:17:45;;;;;;;;;;;4.60;99.90;;;;;;6130211;23;19901;-76
2022/12/08 13:20:21;;;;;;;;;;;4.60;99.90;;;;;;6130128;23;19901;-76
2022/12/08 13:22:49;;;;;;;;;;;4.70;99.90;;;;;;6130911;23;19960;-77
2022/12/08 13:25:33;;;;;;;;;;;4.60;99.90;;;;;;6130117;23;19901;-76
2022/12/08 13:28:07;;;;;;;;;;;4.70;99.90;;;;;;6104157;23;20316;-76
2022/12/08 13:30:43;;;;;;;;;;;5.00;99.90;;;;;;6130280;23;19975;-76
2022/12/08 13:33:11;;;;;;;;;;;5.10;99.90;;;;;;6130053;23;19911;-77
2022/12/08 13:35:40;;;;;;;;;;;4.90;99.90;;;;;;6130020;23;19904;-77
2022/12/08 13:38:05;;;;;;;;;;;4.70;99.90;;;;;;6130056;23;19905;-76
2022/12/08 13:40:33;;;;;;;;;;;4.90;99.90;;;;;;6130252;23;20292;-78
2022/12/08 13:43:15;;;;;;;;;;;4.90;99.90;;;;;;6130212;23;19908;-77
2022/12/08 13:45:42;;;;;;;;;;;4.90;99.90;;;;;;6130585;23;19900;-76
2022/12/08 13:48:17;;;;;;;;;;;4.80;99.90;;;;;;6130036;23;19908;-77
2022/12/08 13:50:43;;;;;;;;;;;4.70;99.90;;;;;;6130132;23;19928;-77
2022/12/08 13:53:14;;;;;;;;;;;5.10;99.90;;;;;;6129935;23;19905;-77
2022/12/08 13:55:45;;;;;;;;;;;5.10;99.90;;;;;;6128692;23;19907;-76
2022/12/08 13:58:37;;;;;;;;;;;5.00;99.90;;;;;;6128208;23;19901;-77
2022/12/08 14:01:20;;;;;;;;;;;5.10;99.90;;;;;;6123828;23;19901;-76
2022/12/08 14:03:52;;;;;;;;;;;5.20;99.90;;;;;;6128298;23;20421;-77
2022/12/08 14:06:21;;;;;;;;;;;5.30;99.90;;;;;;6128308;23;20213;-76
2022/12/08 14:08:50;;;;;;;;;;;5.30;99.90;;;;;;6128460;23;20340;-77
2022/12/08 14:11:32;;;;;;;;;;;5.20;99.90;;;;;;6128628;23;19932;-77
2022/12/08 14:14:09;;;;;;;;;;;4.80;99.90;;;;;;6101925;23;19905;-76
2022/12/08 14:16:42;;;;;;;;;;;4.80;99.90;;;;;;6128590;23;19901;-76
2022/12/08 14:19:15;;;;;;;;;;;5.20;99.90;;;;;;6128070;23;19901;-77
2022/12/08 14:21:40;;;;;;;;;;;5.70;99.90;;;;;;6128325;23;19964;-77
2022/12/08 14:24:07;;;;;;;;;;;5.40;99.90;;;;;;6128163;23;20287;-77
2022/12/08 14:26:34;;;;;;;;;;;5.20;99.90;;;;;;6128633;23;19923;-76
2022/12/08 14:29:00;;;;;;;;;;;5.30;99.90;;;;;;6128387;23;19905;-77
2022/12/08 14:31:26;;;;;;;;;;;5.30;99.90;;;;;;6128147;23;19967;-76
2022/12/08 14:33:52;;;;;;;;;;;5.30;99.90;;;;;;6127935;23;19904;-77
2022/12/08 14:36:19;;;;;;;;;;;5.30;99.90;;;;;;6128073;23;20282;-77
2022/12/08 14:38:46;;;;;;;;;;;5.10;99.90;;;;;;6128433;23;19924;-76
2022/12/08 14:41:12;;;;;;;;;;;4.90;99.90;;;;;;6128036;23;19901;-77
2022/12/08 14:43:39;;;;;;;;;;;4.90;99.90;;;;;;6127958;23;19923;-76